createdAt,value
2019-03-01T00:01:07.571Z,69.30
2019-03-01T00:03:38.411Z,69.36
2019-03-01T00:06:14.422Z,69.19
2019-03-01T00:09:33.334Z,69.32
2019-03-01T00:12:52.437Z,69.26
2019-03-01T00:16:15.683Z,69.58
2019-03-01T00:19:06.317Z,69.11
2019-03-01T00:22:13.651Z,69.11
2019-03-01T00:25:07.605Z,69.07
2019-03-01T00:28:24.492Z,68.90
2019-03-01T00:31:21.571Z,68.98
2019-03-01T00:34:29.769Z,69.26
2019-03-01T00:37:23.713Z,69.65
2019-03-01T00:40:24.620Z,69.44
2019-03-01T00:43:21.698Z,69.56
2019-03-01T00:45:51.489Z,69.74
2019-03-01T00:48:23.330Z,69.64
2019-03-01T00:50:55.952Z,70.20
2019-03-01T00:53:25.522Z,70.10
2019-03-01T00:55:54.953Z,70.16
2019-03-01T00:58:26.544Z,70.18
2019-03-01T01:00:58.962Z,70.31
2019-03-01T01:03:29.369Z,70.48
2019-03-01T01:05:58.791Z,70.74
2019-03-01T01:08:28.239Z,70.52
2019-03-01T01:10:59.181Z,70.74
2019-03-01T01:13:28.558Z,71.61
2019-03-01T01:15:59.187Z,71.89
2019-03-01T01:18:29.072Z,71.74
2019-03-01T01:21:00.272Z,72.34
2019-03-01T01:23:30.987Z,72.08
2019-03-01T01:26:01.441Z,72.76
2019-03-01T01:28:30.969Z,72.79
2019-03-01T01:31:00.551Z,72.96
2019-03-01T01:33:31.731Z,72.69
2019-03-01T01:36:01.128Z,72.81
2019-03-01T01:38:30.569Z,72.83
2019-03-01T01:41:01.745Z,73.22
2019-03-01T01:43:33.792Z,73.11
2019-03-01T01:46:03.490Z,73.50
2019-03-01T01:48:32.944Z,73.30
2019-03-01T01:51:02.353Z,73.36
2019-03-01T01:53:31.964Z,73.44
2019-03-01T01:56:01.358Z,73.82
2019-03-01T01:58:30.783Z,73.91
2019-03-01T02:01:00.472Z,74.19
2019-03-01T02:03:29.909Z,73.92
2019-03-01T02:05:59.347Z,73.93
2019-03-01T02:08:28.775Z,74.32
2019-03-01T02:10:58.468Z,74.00
2019-03-01T02:13:29.013Z,74.30
2019-03-01T02:16:00.305Z,73.82
2019-03-01T02:18:29.695Z,73.58
2019-03-01T02:20:59.348Z,73.64
2019-03-01T02:23:29.030Z,73.42
2019-03-01T02:25:58.443Z,73.10
2019-03-01T02:28:29.652Z,73.08
2019-03-01T02:30:59.912Z,73.39
2019-03-01T02:33:29.423Z,73.45
2019-03-01T02:35:59.946Z,73.86
2019-03-01T02:38:29.558Z,74.05
2019-03-01T02:40:58.962Z,74.06
2019-03-01T02:43:28.359Z,74.33
2019-03-01T02:45:59.824Z,74.29
2019-03-01T02:48:29.228Z,74.89
2019-03-01T02:50:58.623Z,74.97
2019-03-01T02:53:29.083Z,74.95
2019-03-01T02:55:58.463Z,74.96
2019-03-01T02:58:27.915Z,74.55
2019-03-01T03:00:58.412Z,74.96
2019-03-01T03:03:28.980Z,74.76
2019-03-01T03:06:27.232Z,74.82
2019-03-01T03:08:56.642Z,74.57
2019-03-01T03:11:26.047Z,74.45
2019-03-01T03:13:55.747Z,74.24
2019-03-01T03:16:25.240Z,74.42
2019-03-01T03:18:55.253Z,74.35
2019-03-01T03:21:26.849Z,74.24
2019-03-01T03:23:56.708Z,74.28
2019-03-01T03:26:26.149Z,74.16
2019-03-01T03:28:55.982Z,74.45
2019-03-01T03:31:25.482Z,74.11
2019-03-01T03:33:56.914Z,73.66
2019-03-01T03:36:28.203Z,73.50
2019-03-01T03:38:57.642Z,73.57
2019-03-01T03:41:29.738Z,73.46
2019-03-01T03:44:00.400Z,73.39
2019-03-01T03:46:29.877Z,73.20
2019-03-01T03:48:59.242Z,73.19
2019-03-01T03:51:31.680Z,72.96
2019-03-01T03:54:01.105Z,73.26
2019-03-01T03:56:32.959Z,72.89
2019-03-01T03:59:03.686Z,72.78
2019-03-01T04:01:34.132Z,72.69
2019-03-01T04:04:04.311Z,72.67
2019-03-01T04:06:33.952Z,72.72
2019-03-01T04:09:05.275Z,72.75
2019-03-01T04:11:35.778Z,72.67
2019-03-01T04:14:05.565Z,72.67
2019-03-01T04:16:34.994Z,72.40
2019-03-01T04:19:06.280Z,72.68
2019-03-01T04:21:36.314Z,72.85
2019-03-01T04:24:05.734Z,72.62
2019-03-01T04:26:35.486Z,72.62
2019-03-01T04:29:05.262Z,72.55
2019-03-01T04:31:35.686Z,72.25
2019-03-01T04:34:06.190Z,72.41
2019-03-01T04:36:35.833Z,72.14
2019-03-01T04:39:06.775Z,72.01
2019-03-01T04:41:36.184Z,71.77
2019-03-01T04:44:06.803Z,72.26
2019-03-01T04:46:36.265Z,71.93
2019-03-01T04:49:08.484Z,72.62
2019-03-01T04:51:40.272Z,72.62
2019-03-01T04:54:10.936Z,72.99
2019-03-01T04:56:40.369Z,73.05
2019-03-01T04:59:09.891Z,73.23
2019-03-01T05:01:39.411Z,73.58
2019-03-01T05:04:08.816Z,73.59
2019-03-01T05:06:38.294Z,73.39
2019-03-01T05:09:08.605Z,73.64
2019-03-01T05:11:38.029Z,72.90
2019-03-01T05:14:07.487Z,73.16
2019-03-01T05:16:36.915Z,73.21
2019-03-01T05:19:06.307Z,73.17
2019-03-01T05:21:35.775Z,73.15
2019-03-01T05:24:05.240Z,73.41
2019-03-01T05:26:34.710Z,73.90
2019-03-01T05:29:05.748Z,73.53
2019-03-01T05:31:35.170Z,73.32
2019-03-01T05:34:06.411Z,73.69
2019-03-01T05:36:36.021Z,73.32
2019-03-01T05:39:08.800Z,73.97
2019-03-01T05:41:39.248Z,74.48
2019-03-01T05:44:08.823Z,74.55
2019-03-01T05:46:38.228Z,74.17
2019-03-01T05:49:07.630Z,74.03
2019-03-01T05:51:37.058Z,73.87
2019-03-01T05:54:07.912Z,73.94
2019-03-01T05:56:37.364Z,73.96
2019-03-01T05:59:18.875Z,74.08
2019-03-01T06:02:28.280Z,74.14
2019-03-01T06:05:01.455Z,74.83
2019-03-01T06:07:58.041Z,74.46
2019-03-01T06:11:00.887Z,73.96
2019-03-01T06:14:18.281Z,73.31
2019-03-01T06:17:14.710Z,72.96
2019-03-01T06:20:02.785Z,72.48
2019-03-01T06:23:00.593Z,73.40
2019-03-01T06:26:19.875Z,73.69
2019-03-01T06:29:30.238Z,73.34
2019-03-01T06:32:34.706Z,72.69
2019-03-01T06:35:26.725Z,72.64
2019-03-01T06:38:56.958Z,72.48
2019-03-01T06:42:06.025Z,72.20
2019-03-01T06:45:16.478Z,71.81
2019-03-01T06:47:49.966Z,72.28
2019-03-01T06:50:32.047Z,72.31
2019-03-01T06:53:01.449Z,71.86
2019-03-01T06:55:37.157Z,71.54
2019-03-01T06:58:07.803Z,70.98
2019-03-01T07:00:49.807Z,71.15
2019-03-01T07:03:13.461Z,71.60
2019-03-01T07:05:42.842Z,72.20
2019-03-01T07:08:12.417Z,71.62
2019-03-01T07:10:43.179Z,71.37
2019-03-01T07:13:14.382Z,71.49
2019-03-01T07:15:43.804Z,71.66
2019-03-01T07:18:13.276Z,71.36
2019-03-01T07:20:42.649Z,71.54
2019-03-01T07:23:15.002Z,71.34
2019-03-01T07:25:44.936Z,71.12
2019-03-01T07:28:14.423Z,70.98
2019-03-01T07:30:43.826Z,70.95
2019-03-01T07:33:13.287Z,70.80
2019-03-01T07:35:43.184Z,70.68
2019-03-01T07:38:12.625Z,70.39
2019-03-01T07:40:42.195Z,70.26
2019-03-01T07:43:11.602Z,70.37
2019-03-01T07:45:43.354Z,70.17
2019-03-01T07:48:12.984Z,70.25
2019-03-01T07:50:42.388Z,69.78
2019-03-01T07:53:11.788Z,69.32
2019-03-01T07:55:41.393Z,68.96
2019-03-01T07:58:10.852Z,68.87
2019-03-01T08:00:42.171Z,68.55
2019-03-01T08:03:11.938Z,68.51
2019-03-01T08:05:44.126Z,68.75
2019-03-01T08:08:13.527Z,69.27
2019-03-01T08:10:43.364Z,69.47
2019-03-01T08:13:14.808Z,69.20
2019-03-01T08:15:45.028Z,68.71
2019-03-01T08:18:16.709Z,68.86
2019-03-01T08:20:46.126Z,68.29
2019-03-01T08:23:17.349Z,68.14
2019-03-01T08:25:46.946Z,67.12
2019-03-01T08:28:18.468Z,66.68
2019-03-01T08:30:47.553Z,66.89
2019-03-01T08:33:17.226Z,66.53
2019-03-01T08:35:46.605Z,66.46
2019-03-01T08:38:16.020Z,65.34
2019-03-01T08:40:46.707Z,65.06
2019-03-01T08:43:17.188Z,65.67
2019-03-01T08:45:46.554Z,65.20
2019-03-01T08:48:16.308Z,65.93
2019-03-01T08:50:47.040Z,64.93
2019-03-01T08:53:17.542Z,64.32
2019-03-01T08:55:48.262Z,63.93
2019-03-01T08:58:17.640Z,62.84
2019-03-01T09:00:47.127Z,62.08
2019-03-01T09:03:26.602Z,61.60
2019-03-01T09:05:57.156Z,61.66
2019-03-01T09:08:29.306Z,61.56
2019-03-01T09:10:59.721Z,60.74
2019-03-01T09:13:30.420Z,60.80
2019-03-01T09:15:59.964Z,60.04
2019-03-01T09:18:29.968Z,58.91
2019-03-01T09:21:05.713Z,58.67
2019-03-01T09:23:34.386Z,58.65
2019-03-01T09:26:05.850Z,57.52
2019-03-01T09:28:39.536Z,57.10
2019-03-01T09:31:08.042Z,56.69
2019-03-01T09:33:38.437Z,57.80
2019-03-01T09:36:21.299Z,56.68
2019-03-01T09:38:49.697Z,57.15
2019-03-01T09:41:19.133Z,57.52
2019-03-01T09:43:48.719Z,56.62
2019-03-01T09:46:20.789Z,56.72
2019-03-01T09:48:50.881Z,56.48
2019-03-01T09:51:20.341Z,55.64
2019-03-01T09:53:49.715Z,54.79
2019-03-01T09:56:19.319Z,55.23
2019-03-01T09:58:48.828Z,55.17
2019-03-01T10:01:19.482Z,55.12
2019-03-01T10:03:49.665Z,55.70
2019-03-01T10:06:20.051Z,55.61
2019-03-01T10:08:50.910Z,55.39
2019-03-01T10:11:22.285Z,55.23
2019-03-01T10:13:51.666Z,55.17
2019-03-01T10:16:21.074Z,54.52
2019-03-01T10:18:50.505Z,54.74
2019-03-01T10:21:21.029Z,55.19
2019-03-01T10:23:50.439Z,55.55
2019-03-01T10:26:19.905Z,55.40
2019-03-01T10:28:51.081Z,55.19
2019-03-01T10:31:20.472Z,55.05
2019-03-01T10:33:50.529Z,55.36
2019-03-01T10:36:19.942Z,55.74
2019-03-01T10:38:49.340Z,55.31
2019-03-01T10:41:18.840Z,54.37
2019-03-01T10:43:48.271Z,54.38
2019-03-01T10:46:17.966Z,54.57
2019-03-01T10:48:47.600Z,54.64
2019-03-01T10:51:17.286Z,53.89
2019-03-01T10:53:47.941Z,54.40
2019-03-01T10:56:18.772Z,54.81
2019-03-01T10:58:49.169Z,54.25
2019-03-01T11:01:18.576Z,54.45
2019-03-01T11:03:48.234Z,54.70
2019-03-01T11:06:17.609Z,54.57
2019-03-01T11:08:47.024Z,53.82
2019-03-01T11:11:16.481Z,53.52
2019-03-01T11:13:45.964Z,53.37
2019-03-01T11:16:16.785Z,53.18
2019-03-01T11:18:47.420Z,53.08
2019-03-01T11:21:17.792Z,52.91
2019-03-01T11:23:47.252Z,53.01
2019-03-01T11:26:18.293Z,52.90
2019-03-01T11:28:47.682Z,52.82
2019-03-01T11:31:17.078Z,53.46
2019-03-01T11:33:47.762Z,52.71
2019-03-01T11:36:17.166Z,52.62
2019-03-01T11:38:46.566Z,52.67
2019-03-01T11:41:17.124Z,52.48
2019-03-01T11:43:46.512Z,52.50
2019-03-01T11:46:16.021Z,52.61
2019-03-01T11:48:47.348Z,52.87
2019-03-01T11:51:18.812Z,52.96
2019-03-01T11:53:48.226Z,51.70
2019-03-01T11:56:17.933Z,51.95
2019-03-01T11:58:48.425Z,51.85
2019-03-01T12:01:19.443Z,51.90
2019-03-01T12:03:48.960Z,52.30
2019-03-01T12:06:19.571Z,52.52
2019-03-01T12:08:49.256Z,52.83
2019-03-01T12:11:19.210Z,53.00
2019-03-01T12:13:48.393Z,53.15
2019-03-01T12:16:18.888Z,53.71
2019-03-01T12:18:48.343Z,53.41
2019-03-01T12:21:17.926Z,53.42
2019-03-01T12:23:47.350Z,53.51
2019-03-01T12:26:17.080Z,53.51
2019-03-01T12:28:47.889Z,52.53
2019-03-01T12:31:17.395Z,52.91
2019-03-01T12:33:47.421Z,52.78
2019-03-01T12:36:20.118Z,52.32
2019-03-01T12:38:49.505Z,52.46
2019-03-01T12:41:18.960Z,52.17
2019-03-01T12:43:48.364Z,52.22
2019-03-01T12:46:17.787Z,51.32
2019-03-01T12:48:48.771Z,51.28
2019-03-01T12:51:18.174Z,50.87
2019-03-01T12:53:47.841Z,50.27
2019-03-01T12:56:19.244Z,49.94
2019-03-01T12:58:50.124Z,50.26
2019-03-01T13:01:19.604Z,50.54
2019-03-01T13:03:49.405Z,51.10
2019-03-01T13:06:18.809Z,51.26
2019-03-01T13:08:51.355Z,51.25
2019-03-01T13:11:19.759Z,51.55
2019-03-01T13:13:49.313Z,51.65
2019-03-01T13:16:18.749Z,51.27
2019-03-01T13:18:51.252Z,50.56
2019-03-01T13:21:20.893Z,50.12
2019-03-01T13:23:52.081Z,50.45
2019-03-01T13:26:21.751Z,50.92
2019-03-01T13:28:51.128Z,50.56
2019-03-01T13:31:23.088Z,51.08
2019-03-01T13:33:52.733Z,50.61
2019-03-01T13:36:23.906Z,50.91
2019-03-01T13:38:53.425Z,51.09
2019-03-01T13:41:25.317Z,51.10
2019-03-01T13:43:54.851Z,51.13
2019-03-01T13:46:26.449Z,51.89
2019-03-01T13:48:56.530Z,51.31
2019-03-01T13:51:26.260Z,51.43
2019-03-01T13:53:56.282Z,50.60
2019-03-01T13:56:26.932Z,50.59
2019-03-01T13:58:56.316Z,50.49
2019-03-01T14:01:27.094Z,51.10
2019-03-01T14:03:59.770Z,51.47
2019-03-01T14:06:28.709Z,51.44
2019-03-01T14:08:59.696Z,51.58
2019-03-01T14:11:29.386Z,51.41
2019-03-01T14:14:00.400Z,51.52
2019-03-01T14:16:30.277Z,51.81
2019-03-01T14:18:59.735Z,52.19
2019-03-01T14:21:29.806Z,52.22
2019-03-01T14:24:00.533Z,52.20
2019-03-01T14:26:30.442Z,52.28
2019-03-01T14:29:00.842Z,51.79
2019-03-01T14:31:31.251Z,51.88
2019-03-01T14:34:00.898Z,51.91
2019-03-01T14:36:30.310Z,51.99
2019-03-01T14:39:03.464Z,51.94
2019-03-01T14:41:35.093Z,52.33
2019-03-01T14:44:03.615Z,52.56
2019-03-01T14:46:34.218Z,53.15
2019-03-01T14:49:03.781Z,53.45
2019-03-01T14:51:35.054Z,52.99
2019-03-01T14:54:07.108Z,52.76
2019-03-01T14:56:39.769Z,52.55
2019-03-01T14:59:34.780Z,52.44
2019-03-01T15:02:32.624Z,53.03
2019-03-01T15:05:05.523Z,53.09
2019-03-01T15:07:33.159Z,53.39
2019-03-01T15:10:02.659Z,53.09
2019-03-01T15:12:32.065Z,52.82
2019-03-01T15:15:03.674Z,53.38
2019-03-01T15:17:33.461Z,53.59
2019-03-01T15:20:04.373Z,53.64
2019-03-01T15:22:33.825Z,53.92
2019-03-01T15:25:03.351Z,54.81
2019-03-01T15:27:33.737Z,54.80
2019-03-01T15:30:10.022Z,54.98
2019-03-01T15:32:39.750Z,54.95
2019-03-01T15:35:09.479Z,54.90
2019-03-01T15:37:38.894Z,55.09
2019-03-01T15:40:08.628Z,54.96
2019-03-01T15:42:38.213Z,55.12
2019-03-01T15:45:08.770Z,55.03
2019-03-01T15:47:38.420Z,54.77
2019-03-01T15:50:09.087Z,54.72
2019-03-01T15:52:39.582Z,54.58
2019-03-01T15:55:11.952Z,54.59
2019-03-01T15:57:40.430Z,54.48
2019-03-01T16:00:11.122Z,54.48
2019-03-01T16:02:40.611Z,54.77
2019-03-01T16:05:12.652Z,55.04
2019-03-01T16:07:43.163Z,54.80
2019-03-01T16:10:12.989Z,55.21
2019-03-01T16:12:43.863Z,55.73
2019-03-01T16:15:13.700Z,55.61
2019-03-01T16:17:43.269Z,55.53
2019-03-01T16:20:13.816Z,55.63
2019-03-01T16:22:43.240Z,55.58
2019-03-01T16:25:17.287Z,55.24
2019-03-01T16:27:45.147Z,55.10
2019-03-01T16:30:17.652Z,54.85
2019-03-01T16:32:50.365Z,54.95
2019-03-01T16:35:18.628Z,55.00
2019-03-01T16:37:52.728Z,55.35
2019-03-01T16:40:23.224Z,55.46
2019-03-01T16:42:54.367Z,55.48
2019-03-01T16:45:24.840Z,55.46
2019-03-01T16:47:54.291Z,55.43
2019-03-01T16:50:23.791Z,55.91
2019-03-01T16:52:54.999Z,55.77
2019-03-01T16:55:27.955Z,55.79
2019-03-01T16:58:06.853Z,56.00
2019-03-01T17:00:29.393Z,55.93
2019-03-01T17:02:59.277Z,55.11
2019-03-01T17:05:28.732Z,55.26
2019-03-01T17:07:59.796Z,54.88
2019-03-01T17:10:31.144Z,55.13
2019-03-01T17:13:00.642Z,54.75
2019-03-01T17:15:30.033Z,54.91
2019-03-01T17:17:59.476Z,55.15
2019-03-01T17:20:30.038Z,55.00
2019-03-01T17:23:02.682Z,54.81
2019-03-01T17:25:30.652Z,54.71
2019-03-01T17:28:00.042Z,54.58
2019-03-01T17:30:29.522Z,54.64
2019-03-01T17:32:59.225Z,55.14
2019-03-01T17:35:28.677Z,55.18
2019-03-01T17:37:58.071Z,55.34
2019-03-01T17:40:29.243Z,55.22
2019-03-01T17:42:58.637Z,55.09
2019-03-01T17:45:28.039Z,54.82
2019-03-01T17:47:57.853Z,55.29
2019-03-01T17:50:27.336Z,55.29
2019-03-01T17:52:57.477Z,55.37
2019-03-01T17:55:27.167Z,55.13
2019-03-01T17:57:57.900Z,55.26
2019-03-01T18:00:32.382Z,55.41
2019-03-01T18:03:02.951Z,55.56
2019-03-01T18:05:32.338Z,55.74
2019-03-01T18:08:03.876Z,56.25
2019-03-01T18:10:34.447Z,56.68
2019-03-01T18:13:03.836Z,56.60
2019-03-01T18:15:33.239Z,56.86
2019-03-01T18:18:02.895Z,57.09
2019-03-01T18:20:34.004Z,57.23
2019-03-01T18:23:06.397Z,56.95
2019-03-01T18:25:37.854Z,57.20
2019-03-01T18:28:08.471Z,57.12
2019-03-01T18:30:39.278Z,57.02
2019-03-01T18:33:08.756Z,56.90
2019-03-01T18:35:38.289Z,56.69
2019-03-01T18:38:07.669Z,56.84
2019-03-01T18:40:37.275Z,57.05
2019-03-01T18:43:09.770Z,57.18
2019-03-01T18:45:38.445Z,56.83
2019-03-01T18:48:10.174Z,56.98
2019-03-01T18:50:40.612Z,56.89
2019-03-01T18:53:11.462Z,56.23
2019-03-01T18:55:42.801Z,56.31
2019-03-01T18:58:14.135Z,56.35
2019-03-01T19:00:45.329Z,56.34
2019-03-01T19:03:15.105Z,56.02
2019-03-01T19:05:45.584Z,55.81
2019-03-01T19:08:16.190Z,55.79
2019-03-01T19:10:53.931Z,55.90
2019-03-01T19:13:20.678Z,55.89
2019-03-01T19:15:54.355Z,55.91
2019-03-01T19:18:22.069Z,56.32
2019-03-01T19:20:51.677Z,56.35
2019-03-01T19:23:22.531Z,56.52
2019-03-01T19:25:52.045Z,56.61
2019-03-01T19:28:23.657Z,56.37
2019-03-01T19:30:54.650Z,56.12
2019-03-01T19:33:24.270Z,56.25
2019-03-01T19:35:53.827Z,55.91
2019-03-01T19:38:25.147Z,56.02
2019-03-01T19:40:57.905Z,56.03
2019-03-01T19:43:27.391Z,55.64
2019-03-01T19:45:56.900Z,55.55
2019-03-01T19:48:28.471Z,55.83
2019-03-01T19:50:58.421Z,56.42
2019-03-01T19:53:29.046Z,56.67
2019-03-01T19:55:58.790Z,56.36
2019-03-01T19:58:29.945Z,56.51
2019-03-01T20:00:59.371Z,56.30
2019-03-01T20:03:30.127Z,56.26
2019-03-01T20:05:59.502Z,56.12
2019-03-01T20:08:29.605Z,56.12
2019-03-01T20:11:00.290Z,56.02
2019-03-01T20:13:31.683Z,56.03
2019-03-01T20:16:01.421Z,56.42
2019-03-01T20:18:33.022Z,56.13
2019-03-01T20:21:05.851Z,56.92
2019-03-01T20:23:33.562Z,57.13
2019-03-01T20:26:03.139Z,57.45
2019-03-01T20:28:32.621Z,57.40
2019-03-01T20:31:04.914Z,57.23
2019-03-01T20:33:33.517Z,56.90
2019-03-01T20:36:02.915Z,56.52
2019-03-01T20:38:32.279Z,56.43
2019-03-01T20:41:03.190Z,56.74
2019-03-01T20:43:33.003Z,57.11
2019-03-01T20:46:03.954Z,56.78
2019-03-01T20:48:34.676Z,57.06
2019-03-01T20:51:06.149Z,56.91
2019-03-01T20:53:35.355Z,57.11
2019-03-01T20:56:05.983Z,56.65
2019-03-01T20:58:35.771Z,56.88
2019-03-01T21:01:06.659Z,56.65
2019-03-01T21:03:36.240Z,57.34
2019-03-01T21:06:05.733Z,57.55
2019-03-01T21:08:35.136Z,57.46
2019-03-01T21:11:04.622Z,57.51
2019-03-01T21:13:34.079Z,57.80
2019-03-01T21:16:03.480Z,57.88
2019-03-01T21:18:34.879Z,58.23
2019-03-01T21:21:07.117Z,57.94
2019-03-01T21:23:39.124Z,58.05
2019-03-01T21:26:12.116Z,58.23
2019-03-01T21:28:41.901Z,58.17
2019-03-01T21:31:11.905Z,58.41
2019-03-01T21:33:41.625Z,58.36
2019-03-01T21:36:11.118Z,58.38
2019-03-01T21:38:40.540Z,58.15
2019-03-01T21:41:11.143Z,58.19
2019-03-01T21:43:41.140Z,58.32
2019-03-01T21:46:11.378Z,58.05
2019-03-01T21:48:42.552Z,58.18
2019-03-01T21:51:14.880Z,58.18
2019-03-01T21:53:43.120Z,58.57
2019-03-01T21:56:12.727Z,58.47
2019-03-01T21:58:42.840Z,58.59
2019-03-01T22:01:14.751Z,58.25
2019-03-01T22:03:45.672Z,58.14
2019-03-01T22:06:15.188Z,58.15
2019-03-01T22:08:48.652Z,57.97
2019-03-01T22:11:17.565Z,58.34
2019-03-01T22:13:46.981Z,58.25
2019-03-01T22:16:18.221Z,58.26
2019-03-01T22:18:47.919Z,58.58
2019-03-01T22:21:22.616Z,58.32
2019-03-01T22:23:51.513Z,58.71
2019-03-01T22:26:20.416Z,58.75
2019-03-01T22:28:49.842Z,58.36
2019-03-01T22:31:20.791Z,58.43
2019-03-01T22:33:52.572Z,58.29
2019-03-01T22:36:22.611Z,58.55
2019-03-01T22:38:52.038Z,58.52
2019-03-01T22:41:22.480Z,58.68
2019-03-01T22:43:51.872Z,59.29
2019-03-01T22:46:24.975Z,58.92
2019-03-01T22:48:56.616Z,58.58
2019-03-01T22:51:24.873Z,58.52
2019-03-01T22:53:54.555Z,58.60
2019-03-01T22:56:24.271Z,58.58
2019-03-01T22:58:53.712Z,58.19
2019-03-01T23:01:35.377Z,58.00
2019-03-01T23:04:06.725Z,58.39
2019-03-01T23:06:36.114Z,58.24
2019-03-01T23:09:10.737Z,58.48
2019-03-01T23:11:40.567Z,58.70
2019-03-01T23:14:09.970Z,58.40
2019-03-01T23:16:39.359Z,58.46
2019-03-01T23:19:09.190Z,57.99
2019-03-01T23:21:39.615Z,58.12
2019-03-01T23:24:09.021Z,58.06
2019-03-01T23:26:39.648Z,58.06
2019-03-01T23:29:12.255Z,58.13
2019-03-01T23:31:41.641Z,58.28
2019-03-01T23:34:11.466Z,58.44
2019-03-01T23:36:40.904Z,58.65
2019-03-01T23:39:10.486Z,58.57
2019-03-01T23:41:40.076Z,59.12
2019-03-01T23:44:10.944Z,58.82
2019-03-01T23:46:42.160Z,58.76
2019-03-01T23:49:11.612Z,58.83
2019-03-01T23:51:42.520Z,58.88
2019-03-01T23:54:14.666Z,59.02
2019-03-01T23:56:44.409Z,59.02
2019-03-01T23:59:13.808Z,58.96
